Terminal Aerodrome Forecast
Issued by NWS North Platte, NE

Home | Current Version | Previous Version | Text Only | Print | Product List | Glossary On
Versions: 1 2 3 4 5 6 7 8 9 10 11 12 13 14 15 16 17 18
927
FTUS43 KLBF 190520
TAFLBF
TAF
KLBF 190520Z 1906/2006 18004KT P6SM SCT130
     FM191000 VRB03KT 3SM BR SCT100
     FM191200 VRB03KT 1 1/2SM BR SCT003
     FM191400 VRB03KT 1/2SM FG OVC003
     FM191600 VRB03KT P6SM SCT009
     FM191900 19004KT P6SM FEW140=

USA.gov is the U.S. government's official web portal to all federal, state and local government web resources and services.